Terminal Aerodrome Forecast
Issued by NWS Wichita, KS

Home | Current Version | Previous Version | Graphics & Text | Print | Product List | Glossary On
Versions: 1 2 3 4 5 6 7 8 9 10 11 12
000
FTUS43 KICT 191137
TAFICT
TAF
KICT 191137Z 1912/2012 00000KT P6SM SKC
     FM191600 25006KT P6SM SKC
     FM191800 21011KT P6SM SKC
     FM192100 21015G23KT P6SM SKC
     FM192300 19011KT P6SM FEW250=

USA.gov is the U.S. government's official web portal to all federal, state and local government web resources and services.